Time;durP1;ratioP1;P1;durP2;ratioP2;P2;SDS_P1;SDS_P2;PMS_P1;PMS_P2;Temp;Humidity;BMP_temperature;BMP_pressure;BME280_temperature;BME280_humidity;BME280_pressure;Samples;Min_cycle;Max_cycle;Signal;HPM_P1;HPM_P2
2021/03/05 00:03:07;;;;;;;4.30;1.05;;;18.20;99.90;;;;;;4995541;23;20060;-62
2021/03/05 00:05:36;;;;;;;2.92;0.60;;;18.00;99.90;;;;;;4931866;29;20130;-63
2021/03/05 00:08:03;;;;;;;4.47;1.00;;;18.00;99.90;;;;;;4922952;29;20022;-61
2021/03/05 00:10:32;;;;;;;4.32;0.63;;;18.20;99.90;;;;;;4925743;29;20055;-62
2021/03/05 00:13:00;;;;;;;2.60;0.70;;;18.30;99.90;;;;;;4922569;29;20040;-62
2021/03/05 00:15:30;;;;;;;7.00;0.60;;;18.20;99.90;;;;;;4932414;29;20044;-62
2021/03/05 00:17:57;;;;;;;3.17;0.70;;;18.20;99.90;;;;;;4930035;29;20083;-62
2021/03/05 00:20:25;;;;;;;5.65;0.50;;;18.10;99.90;;;;;;4929338;29;20032;-62
2021/03/05 00:22:52;;;;;;;2.08;0.50;;;18.00;99.90;;;;;;4938520;29;20038;-62
2021/03/05 00:25:19;;;;;;;4.95;1.33;;;18.10;99.90;;;;;;4939712;29;20036;-63
2021/03/05 00:27:46;;;;;;;4.85;0.50;;;18.00;99.90;;;;;;4927139;29;20031;-63
2021/03/05 00:30:14;;;;;;;3.40;0.52;;;18.00;99.90;;;;;;4939453;29;20036;-63
2021/03/05 00:32:41;;;;;;;4.85;0.80;;;18.00;99.90;;;;;;4937460;29;20023;-63
2021/03/05 00:35:09;;;;;;;4.05;0.90;;;18.00;99.90;;;;;;4938974;29;20039;-62
2021/03/05 00:37:36;;;;;;;;;;;17.80;99.80;;;;;;4939733;29;20027;-62
2021/03/05 00:40:05;;;;;;;2.03;0.60;;;17.70;99.90;;;;;;4933646;29;19922;-62
2021/03/05 00:42:32;;;;;;;2.13;0.85;;;17.70;99.90;;;;;;4925404;29;20296;-62
2021/03/05 00:44:59;;;;;;;5.50;0.77;;;18.00;99.90;;;;;;4930464;29;20506;-62
2021/03/05 00:47:26;;;;;;;4.70;1.13;;;17.80;99.90;;;;;;4936395;29;20143;-61
2021/03/05 00:49:53;;;;;;;3.22;0.82;;;17.80;99.90;;;;;;4936488;29;20039;-62
2021/03/05 00:52:20;;;;;;;3.05;0.50;;;17.80;99.90;;;;;;4934699;29;20046;-62
2021/03/05 00:54:46;;;;;;;3.72;0.50;;;17.70;99.90;;;;;;4929214;29;20020;-62
2021/03/05 00:57:13;;;;;;;1.35;0.47;;;17.50;99.90;;;;;;4937911;29;20027;-61
2021/03/05 00:59:39;;;;;;;1.38;0.40;;;17.40;99.90;;;;;;4938078;29;20089;-62
2021/03/05 01:02:06;;;;;;;7.22;1.00;;;17.40;99.90;;;;;;4934685;29;20075;-61
2021/03/05 01:04:33;;;;;;;3.92;1.10;;;17.20;99.90;;;;;;4929522;29;20043;-61
2021/03/05 01:06:59;;;;;;;1.73;0.55;;;17.10;99.90;;;;;;4934687;29;20031;-62
2021/03/05 01:09:26;;;;;;;6.55;1.30;;;17.10;99.90;;;;;;4925352;29;20447;-62
2021/03/05 01:11:53;;;;;;;2.72;0.75;;;17.00;99.90;;;;;;4935155;29;20061;-62
2021/03/05 01:14:19;;;;;;;3.50;0.63;;;16.60;99.90;;;;;;4924876;29;20115;-62
2021/03/05 01:16:46;;;;;;;3.67;0.70;;;16.40;99.90;;;;;;4938406;29;20082;-62
2021/03/05 01:19:13;;;;;;;4.47;0.70;;;16.20;99.90;;;;;;4930007;29;20134;-64
2021/03/05 01:21:40;;;;;;;2.38;0.80;;;15.80;99.90;;;;;;4936666;29;20027;-62
2021/03/05 01:24:08;;;;;;;1.95;0.50;;;15.50;99.90;;;;;;4936905;29;20129;-62
2021/03/05 01:26:35;;;;;;;5.10;0.68;;;15.30;99.90;;;;;;4938275;29;20131;-63
2021/03/05 01:29:02;;;;;;;2.95;1.05;;;15.10;99.90;;;;;;4937238;29;20110;-63
2021/03/05 01:31:29;;;;;;;4.72;1.02;;;15.20;99.90;;;;;;4938154;28;20408;-63
2021/03/05 01:33:55;;;;;;;7.88;0.95;;;15.30;99.90;;;;;;4938794;29;20054;-62
2021/03/05 01:36:22;;;;;;;7.40;1.02;;;15.20;99.90;;;;;;4927762;29;20122;-62
2021/03/05 01:38:49;;;;;;;5.70;1.27;;;15.10;99.90;;;;;;4936405;29;20094;-63
2021/03/05 01:41:16;;;;;;;11.45;1.83;;;15.10;99.90;;;;;;4935787;29;20042;-62
2021/03/05 01:43:42;;;;;;;7.00;1.13;;;15.00;99.90;;;;;;4931209;29;20268;-63
2021/03/05 01:46:09;;;;;;;3.72;0.90;;;15.10;99.90;;;;;;4929816;29;20027;-62
2021/03/05 01:48:38;;;;;;;9.57;1.67;;;14.90;99.90;;;;;;4937761;29;20031;-64
2021/03/05 01:51:16;;;;;;;7.25;1.42;;;14.80;99.90;;;;;;4929551;29;20115;-62
2021/03/05 01:53:45;;;;;;;9.98;1.13;;;14.80;99.90;;;;;;4935465;29;20134;-64
2021/03/05 01:56:29;;;;;;;11.88;2.35;;;14.80;99.90;;;;;;4936790;29;20040;-63
2021/03/05 01:58:56;;;;;;;6.00;1.20;;;14.70;99.90;;;;;;4932340;29;20401;-63
2021/03/05 02:01:24;;;;;;;5.25;1.33;;;14.70;99.90;;;;;;4935824;29;20079;-64
2021/03/05 02:03:51;;;;;;;5.20;1.37;;;14.60;99.90;;;;;;4937963;29;20028;-61
2021/03/05 02:06:18;;;;;;;7.35;1.40;;;14.60;99.90;;;;;;4935307;29;20047;-61
2021/03/05 02:08:45;;;;;;;6.55;1.23;;;14.50;99.90;;;;;;4934572;29;20035;-62
2021/03/05 02:11:12;;;;;;;6.75;1.30;;;14.40;99.90;;;;;;4932144;29;20043;-63
2021/03/05 02:13:38;;;;;;;6.68;1.10;;;14.40;99.90;;;;;;4933235;29;20031;-62
2021/03/05 02:16:14;;;;;;;11.57;1.42;;;14.30;99.90;;;;;;4932602;29;20094;-63
2021/03/05 02:18:57;;;;;;;12.00;1.77;;;14.30;99.90;;;;;;4935544;29;20024;-62
2021/03/05 02:21:43;;;;;;;7.13;2.00;;;14.30;99.90;;;;;;4930673;29;20043;-63
2021/03/05 02:24:38;;;;;;;13.55;2.38;;;14.20;99.90;;;;;;4934941;29;20032;-62
2021/03/05 02:27:40;;;;;;;13.93;1.55;;;14.10;99.90;;;;;;4942054;29;20050;-61
2021/03/05 02:30:19;;;;;;;4.35;0.88;;;14.10;99.90;;;;;;4911822;29;20055;-62
2021/03/05 02:33:08;;;;;;;5.45;1.98;;;14.10;99.90;;;;;;4928769;29;20036;-63
2021/03/05 02:35:35;;;;;;;11.52;1.52;;;14.00;99.90;;;;;;4929731;29;20031;-62
2021/03/05 02:38:04;;;;;;;12.13;1.40;;;13.90;99.90;;;;;;4936244;29;20031;-64
2021/03/05 02:40:39;;;;;;;10.43;1.55;;;13.90;99.90;;;;;;4935395;29;20031;-64
2021/03/05 02:43:10;;;;;;;8.23;1.63;;;13.80;99.90;;;;;;4929746;29;20040;-64
2021/03/05 02:45:40;;;;;;;4.95;1.15;;;13.80;99.90;;;;;;4934082;29;20028;-64
2021/03/05 02:48:23;;;;;;;5.82;1.13;;;13.80;99.90;;;;;;4935767;29;20040;-64
2021/03/05 02:50:58;;;;;;;16.38;1.52;;;13.80;99.90;;;;;;4929597;29;20051;-64
2021/03/05 02:53:27;;;;;;;7.43;1.40;;;13.80;99.90;;;;;;4932833;29;20027;-64
2021/03/05 02:55:59;;;;;;;7.97;1.80;;;13.70;99.90;;;;;;4934317;29;20035;-64
2021/03/05 02:58:27;;;;;;;10.05;1.65;;;13.70;99.90;;;;;;4932491;29;20397;-64
2021/03/05 03:00:56;;;;;;;6.78;1.55;;;13.80;99.90;;;;;;4925254;29;20410;-65
2021/03/05 03:03:24;;;;;;;6.53;1.70;;;13.70;99.90;;;;;;4934880;29;20051;-65
2021/03/05 03:05:52;;;;;;;12.53;1.97;;;13.70;99.90;;;;;;4934697;29;20098;-63
2021/03/05 03:08:21;;;;;;;20.73;3.03;;;13.70;99.90;;;;;;4933479;29;20122;-63
2021/03/05 03:10:49;;;;;;;9.32;2.13;;;13.70;99.90;;;;;;4934777;29;20035;-64
2021/03/05 03:13:17;;;;;;;15.48;1.83;;;13.60;99.90;;;;;;4934813;29;20115;-64
2021/03/05 03:15:44;;;;;;;10.65;1.73;;;13.50;99.90;;;;;;4931406;29;20094;-64
2021/03/05 03:18:13;;;;;;;11.10;2.88;;;13.60;99.90;;;;;;4934187;29;20450;-64
2021/03/05 03:20:42;;;;;;;12.20;1.92;;;13.60;99.90;;;;;;4925538;29;21790;-64
2021/03/05 03:23:09;;;;;;;15.48;1.15;;;13.60;99.90;;;;;;4934063;29;20321;-63
2021/03/05 03:25:36;;;;;;;11.48;1.55;;;13.60;99.90;;;;;;4935180;29;20153;-64
2021/03/05 03:28:03;;;;;;;6.80;1.52;;;13.60;99.90;;;;;;4934550;29;20677;-62
2021/03/05 03:30:30;;;;;;;9.95;1.60;;;13.70;99.90;;;;;;4928621;29;20043;-62
2021/03/05 03:32:57;;;;;;;11.77;2.17;;;13.80;99.90;;;;;;4932539;29;20059;-63
2021/03/05 03:35:24;;;;;;;8.07;1.45;;;13.80;99.90;;;;;;4928506;29;20393;-62
2021/03/05 03:37:51;;;;;;;6.55;1.50;;;13.80;99.90;;;;;;4924075;29;20034;-62
2021/03/05 03:40:20;;;;;;;13.18;2.13;;;13.80;99.90;;;;;;4935712;29;20198;-62
2021/03/05 03:42:48;;;;;;;4.80;1.45;;;13.80;99.90;;;;;;4933936;29;20035;-61
2021/03/05 03:45:19;;;;;;;5.25;1.63;;;13.60;99.90;;;;;;4930728;29;20046;-62
2021/03/05 03:47:46;;;;;;;9.82;1.15;;;13.50;99.90;;;;;;4930948;29;20024;-62
2021/03/05 03:50:28;;;;;;;7.50;1.63;;;13.60;99.90;;;;;;4927006;29;20036;-61
2021/03/05 03:52:58;;;;;;;9.38;1.60;;;13.30;99.90;;;;;;4935075;29;20210;-61
2021/03/05 03:55:25;;;;;;;4.65;1.55;;;13.00;99.90;;;;;;4934685;29;20306;-61
2021/03/05 03:57:54;;;;;;;9.75;1.33;;;12.80;99.90;;;;;;4932178;29;20024;-61
2021/03/05 04:00:23;;;;;;;3.83;1.58;;;12.70;99.90;;;;;;4931263;29;20032;-62
2021/03/05 04:02:52;;;;;;;4.97;1.55;;;12.60;99.90;;;;;;4927610;29;20055;-62
2021/03/05 04:05:26;;;;;;;4.07;1.30;;;12.80;99.90;;;;;;4924451;29;20024;-63
2021/03/05 04:07:55;;;;;;;9.68;1.30;;;12.80;99.90;;;;;;4921172;29;20647;-61
2021/03/05 04:10:23;;;;;;;8.25;2.05;;;12.70;99.90;;;;;;4928815;29;20032;-62
2021/03/05 04:12:50;;;;;;;11.25;2.10;;;12.70;99.90;;;;;;4926657;29;20111;-61
2021/03/05 04:15:20;;;;;;;5.35;1.65;;;12.60;99.90;;;;;;4925001;29;20154;-63
2021/03/05 04:17:47;;;;;;;5.68;2.03;;;12.60;99.90;;;;;;4928019;29;20109;-62
2021/03/05 04:20:17;;;;;;;9.10;1.77;;;12.60;99.90;;;;;;4927327;29;20039;-63
2021/03/05 04:22:46;;;;;;;10.32;1.80;;;12.60;99.90;;;;;;4930741;29;20111;-64
2021/03/05 04:25:14;;;;;;;6.25;1.65;;;12.60;99.90;;;;;;4928957;29;20111;-64
2021/03/05 04:27:41;;;;;;;9.55;1.92;;;12.60;99.90;;;;;;4924572;29;20040;-62
2021/03/05 04:30:08;;;;;;;9.18;2.50;;;12.60;99.90;;;;;;4924475;29;20312;-62
2021/03/05 04:32:35;;;;;;;12.10;2.17;;;12.70;99.90;;;;;;4921529;29;20031;-62
2021/03/05 04:35:01;;;;;;;5.82;2.05;;;12.70;99.90;;;;;;4925415;29;20091;-62
2021/03/05 04:37:28;;;;;;;14.13;2.70;;;12.70;99.90;;;;;;4929921;29;20034;-62
2021/03/05 04:39:55;;;;;;;10.57;2.28;;;12.60;99.90;;;;;;4928286;29;20379;-62
2021/03/05 04:42:22;;;;;;;7.30;2.45;;;12.60;99.90;;;;;;4926980;29;20040;-62
2021/03/05 04:44:49;;;;;;;12.57;2.53;;;12.60;99.90;;;;;;4926101;29;20066;-62
2021/03/05 04:47:15;;;;;;;17.45;3.10;;;12.60;99.90;;;;;;4927345;29;20095;-63
2021/03/05 04:49:42;;;;;;;12.27;2.58;;;12.50;99.90;;;;;;4925297;29;20116;-61
2021/03/05 04:52:09;;;;;;;11.43;2.00;;;12.40;99.90;;;;;;4921153;29;20154;-61
2021/03/05 04:54:35;;;;;;;10.30;2.33;;;12.40;99.90;;;;;;4923490;29;20026;-62
2021/03/05 04:57:02;;;;;;;7.75;1.70;;;12.30;99.90;;;;;;4929720;29;20322;-61
2021/03/05 04:59:29;;;;;;;10.50;1.95;;;12.40;99.90;;;;;;4926790;29;20031;-61
2021/03/05 05:01:55;;;;;;;5.63;1.70;;;12.40;99.90;;;;;;4933749;29;20082;-62
2021/03/05 05:04:22;;;;;;;3.50;1.38;;;12.40;99.90;;;;;;4935243;29;20036;-62
2021/03/05 05:06:48;;;;;;;9.02;2.28;;;12.30;99.90;;;;;;4935245;29;20035;-62
2021/03/05 05:09:15;;;;;;;13.77;1.95;;;12.30;99.90;;;;;;4937686;29;20024;-62
2021/03/05 05:11:42;;;;;;;6.88;1.35;;;12.30;99.90;;;;;;4935409;29;20051;-62
2021/03/05 05:14:08;;;;;;;5.40;1.70;;;12.40;99.90;;;;;;4932238;29;20036;-62
2021/03/05 05:16:35;;;;;;;10.57;2.03;;;12.40;99.90;;;;;;4933640;29;20063;-63
2021/03/05 05:19:02;;;;;;;8.40;2.13;;;12.50;99.90;;;;;;4931657;29;20031;-62
2021/03/05 05:21:28;;;;;;;7.78;2.10;;;12.40;99.90;;;;;;4933812;29;20127;-63
2021/03/05 05:23:55;;;;;;;7.65;1.90;;;12.40;99.90;;;;;;4936563;29;20425;-62
2021/03/05 05:26:21;;;;;;;14.15;2.13;;;12.40;99.90;;;;;;4927155;29;20036;-63
2021/03/05 05:28:48;;;;;;;10.38;2.30;;;12.30;99.90;;;;;;4934540;29;20038;-63
2021/03/05 05:31:15;;;;;;;7.47;2.13;;;12.20;99.90;;;;;;4932195;29;20036;-62
2021/03/05 05:33:41;;;;;;;11.02;2.40;;;12.20;99.90;;;;;;4932340;29;20028;-61
2021/03/05 05:36:08;;;;;;;11.80;2.78;;;12.20;99.90;;;;;;4935584;29;20042;-60
2021/03/05 05:38:35;;;;;;;10.07;2.50;;;12.20;99.90;;;;;;4929182;29;20096;-61
2021/03/05 05:41:02;;;;;;;9.25;2.53;;;12.30;99.90;;;;;;4924801;29;20032;-61
2021/03/05 05:46:07;;;;;;;7.28;2.38;;;12.40;99.90;;;;;;5586808;23;20058;-61
2021/03/05 05:48:38;;;;;;;5.60;1.70;;;12.40;99.90;;;;;;4949281;28;20114;-62
2021/03/05 05:51:18;;;;;;;7.05;2.10;;;12.30;99.90;;;;;;4950783;28;20109;-62
2021/03/05 05:53:48;;;;;;;9.88;2.22;;;12.30;99.90;;;;;;4952814;29;20397;-62
2021/03/05 05:56:19;;;;;;;9.30;2.08;;;12.20;99.90;;;;;;4952889;28;20129;-62
2021/03/05 05:58:47;;;;;;;5.25;1.52;;;12.10;99.90;;;;;;4951246;28;20032;-62
2021/03/05 06:01:14;;;;;;;5.47;1.58;;;12.10;99.90;;;;;;4949977;28;20334;-62
2021/03/05 06:03:41;;;;;;;6.78;1.75;;;12.10;99.90;;;;;;4953633;28;20294;-61
2021/03/05 06:06:11;;;;;;;4.38;1.77;;;12.00;99.90;;;;;;4949855;29;20146;-62
2021/03/05 06:08:37;;;;;;;8.85;1.77;;;12.00;99.90;;;;;;4951012;28;20068;-62
2021/03/05 06:11:04;;;;;;;5.45;1.65;;;11.80;99.90;;;;;;4948941;28;20031;-62
2021/03/05 06:13:31;;;;;;;4.90;1.73;;;11.70;99.90;;;;;;4938659;28;20347;-62
2021/03/05 06:16:31;;;;;;;7.43;1.85;;;11.50;99.90;;;;;;4937376;28;20039;-62
2021/03/05 06:18:59;;;;;;;5.53;2.03;;;11.40;99.90;;;;;;4903460;28;20040;-62
2021/03/05 06:21:36;;;;;;;4.33;2.07;;;11.30;99.90;;;;;;4918772;29;20039;-62
2021/03/05 06:24:04;;;;;;;4.63;1.95;;;11.20;99.90;;;;;;4940605;29;20481;-62
2021/03/05 06:26:52;;;;;;;4.57;1.60;;;11.20;99.90;;;;;;4943802;29;20102;-61
2021/03/05 06:29:25;;;;;;;4.28;1.73;;;11.20;99.90;;;;;;4935623;29;20429;-61
2021/03/05 06:32:00;;;;;;;13.15;2.08;;;11.10;99.90;;;;;;4935437;28;20035;-61
2021/03/05 06:34:27;;;;;;;7.43;1.60;;;11.10;99.90;;;;;;4932863;28;20032;-61
2021/03/05 06:37:02;;;;;;;2.95;1.52;;;11.00;99.90;;;;;;4936394;29;20039;-61
2021/03/05 06:39:30;;;;;;;10.55;1.98;;;11.10;99.90;;;;;;4944575;29;20389;-61
2021/03/05 06:42:01;;;;;;;4.53;1.23;;;11.00;99.90;;;;;;4944907;28;20292;-61
2021/03/05 06:44:28;;;;;;;6.55;2.03;;;11.00;99.90;;;;;;4949957;28;20040;-61
2021/03/05 06:46:55;;;;;;;3.05;1.63;;;11.00;99.90;;;;;;4948325;28;20047;-61
2021/03/05 06:49:22;;;;;;;8.82;2.55;;;10.90;99.90;;;;;;4940725;28;20144;-61
2021/03/05 06:51:57;;;;;;;11.02;2.15;;;11.00;99.90;;;;;;4947301;28;20098;-60
2021/03/05 06:54:35;;;;;;;5.50;2.65;;;11.00;99.90;;;;;;4944015;29;20067;-62
2021/03/05 06:57:04;;;;;;;4.43;1.80;;;11.00;99.90;;;;;;4947454;29;20039;-61
2021/03/05 06:59:45;;;;;;;9.70;2.95;;;11.10;99.90;;;;;;4940693;28;20027;-61
2021/03/05 07:02:17;;;;;;;6.05;2.13;;;11.00;99.90;;;;;;4933599;29;20039;-61
2021/03/05 07:04:50;;;;;;;6.90;2.10;;;10.90;99.90;;;;;;4940295;29;20424;-61
2021/03/05 07:07:21;;;;;;;7.10;1.83;;;11.00;99.90;;;;;;4946500;29;20030;-62
2021/03/05 07:09:49;;;;;;;6.82;1.88;;;11.10;99.90;;;;;;4947890;28;20138;-62
2021/03/05 07:12:24;;;;;;;9.50;3.40;;;11.10;99.90;;;;;;4946101;28;20035;-62
2021/03/05 07:15:00;;;;;;;12.02;2.35;;;10.90;99.90;;;;;;4943563;29;20035;-62
2021/03/05 07:17:27;;;;;;;6.45;2.30;;;10.70;99.90;;;;;;4947864;28;20460;-62
2021/03/05 07:19:54;;;;;;;6.50;1.90;;;10.60;99.90;;;;;;4944812;28;20027;-61
2021/03/05 07:22:25;;;;;;;3.67;1.85;;;10.60;99.90;;;;;;4947829;28;20042;-62
2021/03/05 07:24:54;;;;;;;4.35;1.58;;;10.60;99.90;;;;;;4942469;28;20511;-62
2021/03/05 07:27:29;;;;;;;10.10;2.00;;;10.60;99.90;;;;;;4948280;28;20023;-62
2021/03/05 07:30:01;;;;;;;8.48;2.25;;;10.70;99.90;;;;;;4938580;28;20031;-62
2021/03/05 07:32:39;;;;;;;5.63;1.67;;;10.80;99.90;;;;;;4944689;29;20086;-63
2021/03/05 07:35:13;;;;;;;14.23;3.10;;;10.70;99.90;;;;;;4937079;29;20035;-61
2021/03/05 07:37:50;;;;;;;7.28;2.50;;;10.60;99.90;;;;;;4936318;29;20027;-61
2021/03/05 07:40:18;;;;;;;7.90;2.80;;;10.70;99.90;;;;;;4932394;29;20027;-61
2021/03/05 07:42:45;;;;;;;6.18;2.25;;;10.70;99.90;;;;;;4932801;29;20047;-61
2021/03/05 07:45:14;;;;;;;7.40;2.58;;;10.80;99.90;;;;;;4943459;29;20404;-62
2021/03/05 07:47:45;;;;;;;6.63;2.10;;;10.60;99.90;;;;;;4948592;28;20298;-62
2021/03/05 07:50:15;;;;;;;3.88;1.58;;;10.50;99.90;;;;;;4946901;29;20270;-62
2021/03/05 07:52:42;;;;;;;3.35;1.33;;;10.50;99.90;;;;;;4945001;29;20016;-61
2021/03/05 07:55:09;;;;;;;4.45;2.17;;;10.50;99.90;;;;;;4944375;29;20031;-62
2021/03/05 07:57:44;;;;;;;3.75;2.28;;;10.30;99.90;;;;;;4945114;28;20082;-62
2021/03/05 08:00:13;;;;;;;3.90;1.92;;;10.20;99.90;;;;;;4941583;29;20086;-61
2021/03/05 08:02:53;;;;;;;;;;;10.30;99.90;;;;;;4942984;29;20028;-61
2021/03/05 08:05:33;;;;;;;4.32;1.80;;;10.20;99.90;;;;;;4938009;29;19950;-61
2021/03/05 08:08:24;;;;;;;8.40;1.98;;;10.10;99.90;;;;;;4946385;29;20035;-62
2021/03/05 08:10:59;;;;;;;7.10;2.50;;;10.20;99.90;;;;;;4939305;29;20031;-62
2021/03/05 08:13:52;;;;;;;3.72;2.13;;;10.30;99.90;;;;;;4942383;29;20685;-62
2021/03/05 08:16:31;;;;;;;7.10;2.10;;;10.40;99.90;;;;;;4940426;29;20043;-62
2021/03/05 08:19:07;;;;;;;3.90;2.05;;;10.40;99.90;;;;;;4946675;28;20031;-62
2021/03/05 08:21:57;;;;;;;10.02;2.10;;;10.40;99.90;;;;;;4942143;29;20038;-62
2021/03/05 08:24:28;;;;;;;8.52;2.10;;;10.50;99.90;;;;;;4937016;29;20043;-62
2021/03/05 08:26:58;;;;;;;8.50;2.10;;;10.60;99.90;;;;;;4943670;29;20115;-62
2021/03/05 08:29:47;;;;;;;8.77;2.30;;;10.50;99.90;;;;;;4943251;28;20027;-62
2021/03/05 08:32:32;;;;;;;10.43;2.88;;;10.60;99.90;;;;;;4943028;29;20039;-62
2021/03/05 08:35:13;;;;;;;5.47;1.77;;;10.60;99.90;;;;;;4939547;29;20528;-61
2021/03/05 08:37:59;;;;;;;6.45;2.17;;;10.40;99.90;;;;;;4933278;29;20302;-61
2021/03/05 08:40:27;;;;;;;8.25;2.25;;;10.10;99.90;;;;;;4940304;29;20105;-61
2021/03/05 08:42:58;;;;;;;4.30;2.03;;;9.90;99.90;;;;;;4937910;29;20881;-61
2021/03/05 08:45:28;;;;;;;6.53;2.20;;;9.80;99.90;;;;;;4940577;29;20054;-61
2021/03/05 08:48:02;;;;;;;7.82;2.65;;;9.60;99.90;;;;;;4933187;29;20048;-61
2021/03/05 08:50:34;;;;;;;6.90;3.10;;;9.60;99.90;;;;;;4945197;29;20027;-61
2021/03/05 08:53:13;;;;;;;8.00;2.33;;;9.60;99.90;;;;;;4942157;28;20118;-61
2021/03/05 08:55:40;;;;;;;;;;;9.70;99.90;;;;;;4939967;29;20410;-62
2021/03/05 08:58:07;;;;;;;10.63;2.70;;;9.70;99.90;;;;;;4939739;29;19906;-61
2021/03/05 09:00:36;;;;;;;7.30;2.92;;;9.60;99.90;;;;;;4936628;29;20034;-61
2021/03/05 09:03:07;;;;;;;7.28;2.40;;;9.70;99.90;;;;;;4936736;29;20028;-62
2021/03/05 09:05:37;;;;;;;6.88;2.15;;;9.60;99.90;;;;;;4943547;29;20046;-62
2021/03/05 09:08:05;;;;;;;8.15;2.40;;;9.50;99.90;;;;;;4945392;28;20031;-61
2021/03/05 09:10:44;;;;;;;4.85;2.20;;;9.50;99.90;;;;;;4941995;29;20042;-62
2021/03/05 09:13:12;;;;;;;7.38;2.28;;;9.50;99.90;;;;;;4938159;28;20042;-62
2021/03/05 09:15:44;;;;;;;5.57;2.20;;;9.40;99.90;;;;;;4940029;29;20037;-61
2021/03/05 09:18:18;;;;;;;4.55;1.98;;;9.40;99.90;;;;;;4946408;28;20028;-61
2021/03/05 09:20:47;;;;;;;14.25;3.55;;;9.40;99.90;;;;;;4935685;29;20056;-62
2021/03/05 09:23:34;;;;;;;3.97;2.17;;;9.40;99.90;;;;;;4937255;29;20359;-62
2021/03/05 09:26:08;;;;;;;5.13;2.78;;;9.40;99.90;;;;;;4938105;29;20338;-62
2021/03/05 09:28:40;;;;;;;7.03;2.28;;;9.30;99.90;;;;;;4926563;29;20024;-61
2021/03/05 09:31:08;;;;;;;4.30;2.35;;;9.40;99.90;;;;;;4937057;29;20053;-61
2021/03/05 09:33:40;;;;;;;5.68;2.08;;;9.60;99.90;;;;;;4937748;29;20038;-61
2021/03/05 09:36:12;;;;;;;4.22;2.40;;;9.50;99.90;;;;;;4936629;29;20115;-60
2021/03/05 09:38:41;;;;;;;6.93;2.28;;;9.30;99.90;;;;;;4935027;29;20028;-61
2021/03/05 09:41:25;;;;;;;6.60;2.72;;;9.20;99.90;;;;;;4937527;29;20036;-61
2021/03/05 09:44:05;;;;;;;7.80;2.58;;;9.00;99.90;;;;;;4932344;29;20036;-61
2021/03/05 09:46:38;;;;;;;5.00;2.22;;;8.90;99.90;;;;;;4934162;29;20040;-61
2021/03/05 09:49:31;;;;;;;5.00;2.22;;;8.90;99.90;;;;;;4944984;28;20449;-61
2021/03/05 09:51:58;;;;;;;6.18;2.05;;;8.80;99.90;;;;;;4937220;29;20031;-62
2021/03/05 09:54:41;;;;;;;6.93;1.75;;;8.80;99.90;;;;;;4941984;29;20035;-61
2021/03/05 09:57:10;;;;;;;7.00;2.55;;;8.80;99.90;;;;;;4935962;29;20036;-60
2021/03/05 09:59:49;;;;;;;5.25;1.95;;;8.90;99.90;;;;;;4929907;29;20374;-62
2021/03/05 10:02:21;;;;;;;;;;;8.90;99.90;;;;;;4937951;29;20024;-61
2021/03/05 10:04:50;;;;;;;6.63;2.10;;;8.80;99.90;;;;;;4928882;29;19919;-61
2021/03/05 10:07:17;;;;;;;7.10;2.60;;;8.70;99.90;;;;;;4942652;29;20031;-61
2021/03/05 10:09:44;;;;;;;5.78;2.42;;;8.80;99.90;;;;;;4947884;29;20454;-62
2021/03/05 10:12:11;;;;;;;5.63;3.08;;;8.90;99.90;;;;;;4937348;28;20075;-61
2021/03/05 10:14:40;;;;;;;5.45;2.75;;;8.80;99.90;;;;;;4932555;29;20146;-61
2021/03/05 10:17:10;;;;;;;6.93;3.45;;;9.00;99.90;;;;;;4936295;29;20038;-61
2021/03/05 10:19:39;;;;;;;4.55;2.80;;;9.20;99.90;;;;;;4934921;29;20047;-61
2021/03/05 10:22:07;;;;;;;7.43;3.05;;;9.10;99.90;;;;;;4935494;29;20458;-61
2021/03/05 10:24:34;;;;;;;8.07;2.87;;;9.00;99.90;;;;;;4935448;29;20034;-62
2021/03/05 10:29:43;;;;;;;10.50;3.00;;;8.80;99.90;;;;;;4935362;29;20465;-61
2021/03/05 10:32:26;;;;;;;5.57;2.85;;;8.70;99.90;;;;;;4937404;29;20099;-61
2021/03/05 10:34:54;;;;;;;17.45;3.25;;;8.70;99.90;;;;;;4928432;29;20032;-61
2021/03/05 10:37:22;;;;;;;7.88;3.05;;;8.80;99.90;;;;;;4933515;29;20098;-61
2021/03/05 10:39:50;;;;;;;4.68;2.80;;;8.80;99.90;;;;;;4929329;29;20051;-60
2021/03/05 10:42:18;;;;;;;11.18;2.95;;;8.90;99.90;;;;;;4923722;29;20135;-60
2021/03/05 10:44:47;;;;;;;6.20;2.80;;;8.70;99.90;;;;;;4933051;29;20322;-61
2021/03/05 10:47:16;;;;;;;7.07;2.65;;;8.70;99.90;;;;;;4934147;29;20063;-60
2021/03/05 10:49:44;;;;;;;4.03;2.40;;;8.70;99.90;;;;;;4938030;29;20517;-61
2021/03/05 10:52:12;;;;;;;16.17;2.95;;;8.80;99.90;;;;;;4946195;29;20055;-61
2021/03/05 10:54:39;;;;;;;4.55;2.60;;;8.80;99.90;;;;;;4932057;29;20059;-61
2021/03/05 10:57:08;;;;;;;8.57;3.67;;;8.60;99.90;;;;;;4935404;29;20327;-61
2021/03/05 10:59:35;;;;;;;6.60;3.20;;;8.60;99.90;;;;;;4935726;29;20155;-61
2021/03/05 11:02:01;;;;;;;3.78;2.00;;;8.70;99.90;;;;;;4933660;28;20034;-60
2021/03/05 11:04:28;;;;;;;8.18;2.90;;;8.80;99.90;;;;;;4936109;29;20066;-62
2021/03/05 11:06:55;;;;;;;8.32;3.95;;;8.70;99.90;;;;;;4937090;29;20031;-61
2021/03/05 11:09:27;;;;;;;5.38;3.50;;;8.60;99.90;;;;;;4934647;29;20122;-60
2021/03/05 11:11:54;;;;;;;4.10;2.60;;;8.60;99.90;;;;;;4933292;29;20039;-61
2021/03/05 11:14:21;;;;;;;7.38;3.22;;;8.40;99.90;;;;;;4937692;29;20114;-61
2021/03/05 11:16:48;;;;;;;6.60;2.83;;;8.30;99.90;;;;;;4935650;29;20110;-61
2021/03/05 11:19:17;;;;;;;6.05;2.95;;;8.20;99.90;;;;;;4934268;29;20064;-62
2021/03/05 11:21:43;;;;;;;7.90;2.93;;;8.30;99.90;;;;;;4936668;29;20110;-62
2021/03/05 11:24:11;;;;;;;8.15;3.20;;;8.40;99.90;;;;;;4931583;29;20032;-62
2021/03/05 11:26:38;;;;;;;5.35;2.47;;;8.40;99.90;;;;;;4934481;29;20035;-62
2021/03/05 11:29:05;;;;;;;5.13;2.40;;;8.40;99.90;;;;;;4937202;29;20098;-61
2021/03/05 11:31:32;;;;;;;10.45;3.38;;;8.30;99.90;;;;;;4935983;29;20103;-61
2021/03/05 11:33:59;;;;;;;5.80;2.38;;;8.30;99.90;;;;;;4935955;29;20118;-61
2021/03/05 11:36:25;;;;;;;7.20;2.97;;;8.20;99.90;;;;;;4935288;29;20047;-62
2021/03/05 11:38:52;;;;;;;4.68;2.00;;;8.20;99.90;;;;;;4939400;29;20166;-61
2021/03/05 11:41:20;;;;;;;5.38;2.88;;;8.20;99.90;;;;;;4935343;29;20028;-62
2021/03/05 11:43:50;;;;;;;7.22;3.33;;;8.20;99.90;;;;;;4934031;29;20039;-62
2021/03/05 11:46:21;;;;;;;5.18;2.55;;;8.30;99.90;;;;;;4925286;29;20082;-62
2021/03/05 11:48:48;;;;;;;7.82;3.53;;;8.30;99.90;;;;;;4940677;29;20094;-62
2021/03/05 11:51:17;;;;;;;5.43;2.55;;;8.30;99.90;;;;;;4938892;29;20114;-62
2021/03/05 11:53:44;;;;;;;6.90;3.25;;;8.20;99.90;;;;;;4944801;28;20031;-62
2021/03/05 11:56:10;;;;;;;7.50;2.40;;;8.20;99.90;;;;;;4931022;29;20135;-62
2021/03/05 11:58:38;;;;;;;5.55;2.50;;;8.10;99.90;;;;;;4933225;29;20577;-62
2021/03/05 12:01:05;;;;;;;9.27;3.67;;;8.00;99.90;;;;;;4935328;29;20343;-62
2021/03/05 12:03:32;;;;;;;18.70;3.83;;;8.00;99.90;;;;;;4933454;29;20046;-62
2021/03/05 12:05:59;;;;;;;12.88;4.38;;;8.00;99.90;;;;;;4929648;29;20059;-63
2021/03/05 12:08:25;;;;;;;7.70;2.67;;;8.10;99.90;;;;;;4936113;29;20357;-62
2021/03/05 12:10:52;;;;;;;3.67;2.80;;;8.10;99.90;;;;;;4926580;29;20591;-62
2021/03/05 12:13:19;;;;;;;9.13;4.15;;;8.00;99.90;;;;;;4928249;29;20050;-63
2021/03/05 12:15:45;;;;;;;8.18;3.15;;;8.10;99.90;;;;;;4933745;29;20031;-63
2021/03/05 12:18:12;;;;;;;8.05;3.30;;;8.00;99.90;;;;;;4925792;29;20059;-61
2021/03/05 12:20:39;;;;;;;6.20;3.13;;;8.10;99.90;;;;;;4924956;29;20028;-61
2021/03/05 12:23:07;;;;;;;7.75;2.30;;;8.10;99.90;;;;;;4924831;29;20311;-61
2021/03/05 12:25:34;;;;;;;9.65;3.22;;;8.20;99.90;;;;;;4920365;29;20114;-62
2021/03/05 12:28:01;;;;;;;10.55;2.95;;;8.10;99.90;;;;;;4921912;29;20359;-61
2021/03/05 12:30:28;;;;;;;8.63;3.13;;;8.10;99.90;;;;;;4923093;29;20059;-61
2021/03/05 12:32:55;;;;;;;9.88;3.72;;;8.00;99.90;;;;;;4921869;29;20098;-60
2021/03/05 12:35:23;;;;;;;6.90;2.92;;;8.10;99.90;;;;;;4920929;29;20170;-61
2021/03/05 12:37:50;;;;;;;5.53;2.70;;;8.10;99.90;;;;;;4923506;29;20032;-61
2021/03/05 12:40:17;;;;;;;3.88;3.03;;;8.10;99.90;;;;;;4920668;29;20139;-61
2021/03/05 12:42:44;;;;;;;6.72;3.30;;;8.30;99.90;;;;;;4921532;29;20027;-62
2021/03/05 12:45:12;;;;;;;7.05;3.50;;;8.20;99.90;;;;;;4922491;29;20164;-62
2021/03/05 12:47:39;;;;;;;7.57;2.97;;;8.20;99.90;;;;;;4920949;29;20089;-62
2021/03/05 12:50:08;;;;;;;4.82;2.28;;;8.20;99.90;;;;;;4923829;29;20267;-62
2021/03/05 12:52:35;;;;;;;6.75;2.72;;;8.20;99.90;;;;;;4922554;29;20031;-62
2021/03/05 12:55:03;;;;;;;7.00;2.65;;;8.10;99.90;;;;;;4922001;29;20032;-62
2021/03/05 12:57:30;;;;;;;7.43;3.70;;;8.00;99.90;;;;;;4920656;28;20399;-62
2021/03/05 12:59:56;;;;;;;5.47;2.78;;;7.80;99.90;;;;;;4922713;29;20032;-61
2021/03/05 13:02:23;;;;;;;9.25;3.40;;;7.70;99.90;;;;;;4921382;29;20310;-61
2021/03/05 13:04:50;;;;;;;5.47;2.50;;;7.70;99.90;;;;;;4921385;29;20032;-61
2021/03/05 13:07:17;;;;;;;5.47;3.00;;;7.70;99.90;;;;;;4920993;29;20087;-62
2021/03/05 13:09:43;;;;;;;13.98;2.72;;;7.70;99.90;;;;;;4922530;29;20036;-62
2021/03/05 13:12:10;;;;;;;8.38;2.70;;;7.60;99.90;;;;;;4919075;29;20416;-62